Time;durP1;ratioP1;P1;durP2;ratioP2;P2;SDS_P1;SDS_P2;PMS_P1;PMS_P2;Temp;Humidity;BMP_temperature;BMP_pressure;BME280_temperature;BME280_humidity;BME280_pressure;Samples;Min_cycle;Max_cycle;Signal;HPM_P1;HPM_P2
2022/12/13 00:01:14;;;;;;;62.65;33.38;;;1.60;1.00;;;;;;5091189;28;20036;-67
2022/12/13 00:03:39;;;;;;;62.75;32.67;;;1.80;1.00;;;;;;5093112;28;20032;-67
2022/12/13 00:06:06;;;;;;;62.45;35.33;;;1.00;1.00;;;;;;5093567;28;20044;-68
2022/12/13 00:08:32;;;;;;;92.93;35.60;;;1.30;99.90;;;;;;5090020;28;20054;-68
2022/12/13 00:11:06;;;;;;;59.47;33.40;;;0.70;99.90;;;;;;5103399;28;20040;-68
2022/12/13 00:13:32;;;;;;;54.50;31.38;;;0.50;1.00;;;;;;5105940;28;20047;-68
2022/12/13 00:16:00;;;;;;;55.53;32.45;;;0.90;1.00;;;;;;5091919;28;20039;-68
2022/12/13 00:18:26;;;;;;;57.47;33.47;;;0.70;1.00;;;;;;5092091;28;20036;-68
2022/12/13 00:20:51;;;;;;;69.22;36.50;;;1.50;1.00;;;;;;5091899;28;20103;-68
2022/12/13 00:23:17;;;;;;;61.13;35.08;;;1.70;1.00;;;;;;5092103;28;20454;-67
2022/12/13 00:25:43;;;;;;;63.75;34.25;;;0.70;1.00;;;;;;5091213;28;20085;-68
2022/12/13 00:28:09;;;;;;;54.78;30.40;;;1.00;1.00;;;;;;5090711;28;20032;-68
2022/12/13 00:30:34;;;;;;;165.18;40.92;;;2.00;1.00;;;;;;5089472;28;20043;-67
2022/12/13 00:33:00;;;;;;;62.78;33.67;;;2.40;99.90;;;;;;5086892;28;20028;-68
2022/12/13 00:35:25;;;;;;;51.55;29.55;;;1.70;99.90;;;;;;5075140;28;20044;-68
2022/12/13 00:37:51;;;;;;;53.80;32.17;;;0.90;96.10;;;;;;5087463;28;20036;-68
2022/12/13 00:40:17;;;;;;;69.57;35.08;;;1.10;99.90;;;;;;5092536;28;20623;-68
2022/12/13 00:42:43;;;;;;;56.08;33.88;;;1.80;99.90;;;;;;5090167;28;20109;-68
2022/12/13 00:45:09;;;;;;;54.47;32.92;;;1.90;99.90;;;;;;5090917;28;20090;-68
2022/12/13 00:47:35;;;;;;;65.88;34.55;;;1.90;99.90;;;;;;5090558;28;20040;-68
2022/12/13 00:50:02;;;;;;;54.67;32.67;;;0.80;99.90;;;;;;5086447;28;20061;-68
2022/12/13 00:52:28;;;;;;;60.03;33.97;;;1.70;99.90;;;;;;5091409;28;20046;-68
2022/12/13 00:54:53;;;;;;;65.93;35.92;;;2.10;99.90;;;;;;5090594;28;20397;-68
2022/12/13 00:57:20;;;;;;;59.70;34.40;;;1.20;99.90;;;;;;5091600;28;20044;-68
2022/12/13 00:59:45;;;;;;;59.70;34.28;;;1.00;99.90;;;;;;5093898;28;20039;-68
2022/12/13 01:02:11;;;;;;;60.55;33.10;;;1.10;99.90;;;;;;5084726;28;20044;-68
2022/12/13 01:04:37;;;;;;;63.70;34.03;;;0.90;99.90;;;;;;5090655;28;20494;-68
2022/12/13 01:07:03;;;;;;;54.67;31.98;;;0.90;99.90;;;;;;5089714;28;20482;-68
2022/12/13 01:09:31;;;;;;;1974.97;175.00;;;0.90;99.90;;;;;;5073423;28;20123;-67
2022/12/13 01:11:58;;;;;;;54.63;30.50;;;1.90;99.90;;;;;;5069921;28;20032;-67
2022/12/13 01:14:25;;;;;;;53.80;30.58;;;0.90;99.90;;;;;;5069015;28;20036;-68
2022/12/13 01:16:54;;;;;;;52.38;30.83;;;1.80;99.90;;;;;;5067979;28;20494;-68
2022/12/13 01:19:21;;;;;;;58.42;32.63;;;0.80;99.90;;;;;;5069131;28;20056;-68
2022/12/13 01:21:47;;;;;;;58.92;30.42;;;0.80;99.90;;;;;;5070538;28;20045;-68
2022/12/13 01:24:13;;;;;;;59.88;31.20;;;1.60;99.90;;;;;;5068825;28;20103;-68
2022/12/13 01:26:38;;;;;;;54.67;30.63;;;1.50;99.90;;;;;;5070497;28;20059;-68
2022/12/13 01:29:04;;;;;;;53.58;30.25;;;1.10;98.90;;;;;;5070691;28;20079;-68
2022/12/13 01:31:30;;;;;;;53.65;31.13;;;0.90;98.60;;;;;;5087191;28;20040;-68
2022/12/13 01:33:56;;;;;;;52.88;28.55;;;1.30;99.90;;;;;;5069579;28;20036;-68
2022/12/13 01:36:22;;;;;;;53.58;31.80;;;0.80;99.90;;;;;;5065401;28;20512;-68
2022/12/13 01:38:48;;;;;;;51.45;29.38;;;1.80;99.90;;;;;;5066707;28;20044;-68
2022/12/13 01:41:16;;;;;;;53.58;30.35;;;1.80;99.90;;;;;;5070469;28;20059;-68
2022/12/13 01:43:41;;;;;;;52.63;30.10;;;1.40;99.90;;;;;;5069792;28;20048;-68
2022/12/13 01:46:09;;;;;;;50.15;29.35;;;0.90;99.90;;;;;;5068822;28;20255;-68
2022/12/13 01:48:38;;;;;;;57.53;28.02;;;1.50;99.90;;;;;;5069330;28;20058;-68
2022/12/13 01:51:07;;;;;;;49.25;28.77;;;0.50;79.00;;;;;;5071074;28;20036;-67
2022/12/13 01:53:35;;;;;;;52.63;30.00;;;1.80;1.00;;;;;;5069985;28;20482;-68
2022/12/13 01:56:15;;;;;;;52.22;30.83;;;1.80;99.90;;;;;;5070423;28;20075;-68
2022/12/13 01:58:41;;;;;;;53.92;31.38;;;1.10;99.90;;;;;;5068796;28;20045;-68
2022/12/13 02:01:07;;;;;;;56.53;31.15;;;1.20;99.90;;;;;;5070286;28;20068;-68
2022/12/13 02:03:34;;;;;;;51.58;30.30;;;1.90;99.90;;;;;;5069619;28;20045;-68
2022/12/13 02:06:13;;;;;;;55.92;30.48;;;1.80;99.90;;;;;;5068425;28;20067;-68
2022/12/13 02:08:40;;;;;;;49.97;28.70;;;1.50;99.90;;;;;;5069674;28;20091;-68
2022/12/13 02:11:06;;;;;;;49.03;28.27;;;1.10;99.90;;;;;;5070621;28;20040;-68
2022/12/13 02:13:32;;;;;;;42.22;27.13;;;1.70;99.90;;;;;;5069485;28;20055;-68
2022/12/13 02:16:11;;;;;;;46.60;27.85;;;0.90;99.90;;;;;;5068916;28;20376;-68
2022/12/13 02:18:51;;;;;;;52.08;28.08;;;1.70;99.90;;;;;;5066792;28;20068;-68
2022/12/13 02:21:20;;;;;;;44.58;26.40;;;0.80;99.90;;;;;;5070500;28;21274;-68
2022/12/13 02:24:24;;;;;;;47.90;26.95;;;1.00;99.90;;;;;;5086868;28;20040;-68
2022/12/13 02:27:34;;;;;;;49.45;27.83;;;1.80;99.90;;;;;;5081083;28;20079;-68
2022/12/13 02:30:29;;;;;;;49.08;27.20;;;1.90;99.90;;;;;;5069861;28;20105;-68
2022/12/13 02:33:06;;;;;;;405.00;43.28;;;1.60;99.90;;;;;;5078313;28;20040;-67
2022/12/13 02:35:39;;;;;;;47.90;27.65;;;1.40;99.90;;;;;;5072622;28;20124;-68
2022/12/13 02:38:20;;;;;;;45.75;26.85;;;1.80;99.90;;;;;;5067721;28;20075;-68
2022/12/13 02:40:59;;;;;;;47.88;28.58;;;1.60;99.90;;;;;;5070306;28;20041;-68
2022/12/13 02:43:37;;;;;;;55.65;28.20;;;1.50;99.90;;;;;;5070399;28;20135;-68
2022/12/13 02:46:05;;;;;;;48.78;26.75;;;1.30;1.00;;;;;;5070286;28;20399;-68
2022/12/13 02:48:38;;;;;;;50.95;28.10;;;1.90;1.00;;;;;;5068950;28;20501;-68
2022/12/13 02:51:05;;;;;;;46.17;27.42;;;1.80;1.00;;;;;;5069447;28;20043;-68
2022/12/13 02:53:33;;;;;;;49.83;28.73;;;1.20;1.00;;;;;;5067948;28;20133;-68
2022/12/13 02:55:59;;;;;;;45.97;27.88;;;1.40;1.00;;;;;;5070212;28;20128;-68
2022/12/13 02:58:32;;;;;;;44.55;27.88;;;1.30;1.00;;;;;;5068526;28;20120;-68
2022/12/13 03:01:29;;;;;;;45.80;27.23;;;1.30;1.00;;;;;;5069515;28;20040;-68
2022/12/13 03:04:01;;;;;;;;;;;2.30;1.00;;;;;;5069955;28;20555;-68
2022/12/13 03:06:35;;;;;;;48.45;26.55;;;2.30;1.00;;;;;;5068281;28;20016;-67
2022/12/13 03:09:27;;;;;;;42.42;24.75;;;1.80;1.00;;;;;;5053453;28;20566;-68
2022/12/13 03:15:24;;;;;;;42.65;25.42;;;2.30;1.00;;;;;;5067663;28;20078;-67
2022/12/13 03:18:05;;;;;;;42.92;25.23;;;2.20;25.40;;;;;;5089536;28;20489;-68
2022/12/13 03:20:31;;;;;;;46.33;25.70;;;1.40;1.00;;;;;;5073095;28;20040;-68
2022/12/13 03:22:57;;;;;;;47.63;26.95;;;1.50;1.00;;;;;;5072016;28;20040;-68
2022/12/13 03:25:26;;;;;;;42.97;26.25;;;2.00;1.00;;;;;;5072828;28;20036;-68
2022/12/13 03:27:52;;;;;;;43.83;26.25;;;2.10;1.00;;;;;;5056144;28;20064;-68
2022/12/13 03:30:18;;;;;;;43.25;27.90;;;2.10;1.00;;;;;;5073380;28;20438;-67
2022/12/13 03:32:43;;;;;;;43.97;25.75;;;1.90;1.00;;;;;;5083015;28;20080;-68
2022/12/13 03:35:09;;;;;;;43.92;26.80;;;1.70;1.00;;;;;;5071129;28;20033;-68
2022/12/13 03:37:34;;;;;;;45.05;26.15;;;2.20;1.00;;;;;;5061805;28;20061;-68
2022/12/13 03:40:01;;;;;;;42.22;25.90;;;1.60;1.00;;;;;;5072746;28;20044;-68
2022/12/13 03:42:27;;;;;;;40.42;25.25;;;1.80;1.00;;;;;;5088922;28;20040;-68
2022/12/13 03:44:52;;;;;;;41.80;26.00;;;1.60;1.00;;;;;;5072134;28;20558;-68
2022/12/13 03:47:18;;;;;;;38.58;25.52;;;1.40;1.00;;;;;;5072768;28;20127;-67
2022/12/13 03:49:44;;;;;;;43.90;26.20;;;1.40;1.00;;;;;;5072386;28;20040;-68
2022/12/13 03:52:09;;;;;;;37.00;23.83;;;2.00;1.00;;;;;;5071732;28;20060;-68
2022/12/13 03:54:35;;;;;;;42.72;25.58;;;2.00;99.90;;;;;;5072107;28;20033;-67
2022/12/13 03:57:00;;;;;;;42.17;26.27;;;1.50;1.00;;;;;;5072425;28;20089;-68
2022/12/13 03:59:26;;;;;;;37.65;25.35;;;1.90;1.00;;;;;;5072898;28;20040;-68
2022/12/13 04:01:52;;;;;;;47.13;25.75;;;2.00;99.90;;;;;;5071483;28;20044;-68
2022/12/13 04:04:17;;;;;;;37.53;23.90;;;1.80;99.90;;;;;;5071691;28;20436;-67
2022/12/13 04:06:43;;;;;;;43.47;25.70;;;1.70;99.90;;;;;;5088545;28;20111;-68
2022/12/13 04:09:08;;;;;;;37.40;24.92;;;1.80;99.90;;;;;;5081972;28;20029;-68
2022/12/13 04:14:18;;;;;;;39.78;25.90;;;2.10;99.90;;;;;;5073354;28;20410;-68
2022/12/13 04:16:44;;;;;;;44.47;26.77;;;2.00;99.90;;;;;;5055054;28;20024;-67
2022/12/13 04:19:09;;;;;;;47.30;28.00;;;2.10;99.90;;;;;;5071199;28;20120;-67
2022/12/13 04:21:35;;;;;;;44.97;28.00;;;1.70;99.90;;;;;;5072147;28;20430;-67
2022/12/13 04:24:01;;;;;;;40.25;24.15;;;1.30;99.90;;;;;;5072442;28;20464;-67
2022/12/13 04:26:26;;;;;;;42.85;25.23;;;1.60;1.00;;;;;;5070453;28;20525;-68
2022/12/13 04:28:52;;;;;;;43.90;24.67;;;2.30;1.00;;;;;;5073043;28;20043;-68
2022/12/13 04:31:17;;;;;;;44.85;25.23;;;1.40;99.90;;;;;;5071117;28;20072;-69
2022/12/13 04:33:43;;;;;;;726.65;52.88;;;1.70;99.90;;;;;;5071245;28;20044;-67
2022/12/13 04:36:09;;;;;;;44.30;26.70;;;1.10;99.90;;;;;;5071678;28;20048;-67
2022/12/13 04:38:34;;;;;;;47.35;27.42;;;2.20;1.00;;;;;;5072161;28;20078;-68
2022/12/13 04:41:05;;;;;;;44.25;27.73;;;1.90;1.00;;;;;;5069129;28;20040;-68
2022/12/13 04:43:30;;;;;;;43.15;27.50;;;2.30;1.00;;;;;;5071452;28;20151;-68
2022/12/13 04:45:57;;;;;;;46.47;26.83;;;1.60;1.00;;;;;;5071391;28;20127;-67
2022/12/13 04:48:23;;;;;;;45.15;27.27;;;2.20;1.00;;;;;;5068431;28;20055;-67
2022/12/13 04:50:48;;;;;;;41.60;28.33;;;1.40;99.90;;;;;;5071106;28;20367;-67
2022/12/13 04:53:15;;;;;;;43.30;26.40;;;2.00;99.90;;;;;;5071209;28;20036;-67
2022/12/13 04:55:41;;;;;;;40.95;26.35;;;1.50;99.90;;;;;;5087589;28;20041;-67
2022/12/13 04:58:06;;;;;;;43.22;26.63;;;1.70;99.90;;;;;;5072644;28;20051;-67
2022/12/13 05:00:32;;;;;;;47.50;26.45;;;1.50;99.90;;;;;;5070603;28;20131;-67
2022/12/13 05:02:57;;;;;;;40.53;25.98;;;1.20;99.90;;;;;;5070872;28;20048;-67
2022/12/13 05:05:23;;;;;;;41.17;26.70;;;1.30;1.00;;;;;;5068146;28;20423;-67
2022/12/13 05:07:49;;;;;;;45.63;27.15;;;1.30;1.00;;;;;;5062372;28;20280;-67
2022/12/13 05:10:14;;;;;;;40.92;25.52;;;1.30;1.00;;;;;;5084095;28;20051;-67
2022/12/13 05:12:40;;;;;;;43.25;27.58;;;2.00;99.90;;;;;;5066247;28;20470;-67
2022/12/13 05:15:06;;;;;;;74.72;27.13;;;1.20;99.90;;;;;;5070126;28;20056;-67
2022/12/13 05:17:32;;;;;;;41.92;25.80;;;1.20;99.90;;;;;;5070829;28;20432;-68
2022/12/13 05:19:58;;;;;;;42.58;26.02;;;1.90;99.90;;;;;;5068553;28;20131;-67
2022/12/13 05:22:23;;;;;;;46.30;26.58;;;1.20;99.90;;;;;;5067842;28;20048;-67
2022/12/13 05:24:49;;;;;;;42.17;26.88;;;1.10;99.90;;;;;;5069770;28;20070;-67
2022/12/13 05:27:15;;;;;;;40.33;26.15;;;1.10;99.90;;;;;;5067465;28;20033;-67
2022/12/13 05:29:41;;;;;;;44.42;27.38;;;1.80;99.90;;;;;;5066854;28;20037;-67
2022/12/13 05:32:06;;;;;;;42.55;26.45;;;1.40;99.90;;;;;;5076296;28;20040;-66
2022/12/13 05:34:32;;;;;;;40.47;27.52;;;1.50;99.90;;;;;;5067582;28;20054;-67
2022/12/13 05:36:57;;;;;;;44.78;27.25;;;1.10;99.90;;;;;;5066239;28;20049;-67
2022/12/13 05:39:23;;;;;;;40.92;26.77;;;1.30;99.90;;;;;;5067783;28;20077;-67
2022/12/13 05:41:48;;;;;;;46.92;28.42;;;1.70;1.00;;;;;;5064790;28;20537;-67
2022/12/13 05:44:14;;;;;;;48.53;27.60;;;1.80;1.00;;;;;;5066548;28;20064;-67
2022/12/13 05:46:40;;;;;;;41.15;27.45;;;1.90;1.00;;;;;;5075228;28;20106;-68
2022/12/13 05:49:06;;;;;;;42.13;26.70;;;2.30;1.00;;;;;;5068555;28;20040;-68
2022/12/13 05:51:31;;;;;;;42.97;25.95;;;2.00;1.00;;;;;;5068216;28;20035;-67
2022/12/13 05:53:57;;;;;;;1412.00;96.10;;;2.40;1.00;;;;;;5062563;28;20044;-66
2022/12/13 05:56:22;;;;;;;42.83;27.00;;;1.80;1.00;;;;;;5065854;28;20044;-66
2022/12/13 05:58:48;;;;;;;39.55;26.13;;;2.60;11.20;;;;;;5068766;28;20036;-66
2022/12/13 06:01:15;;;;;;;43.88;26.50;;;2.50;1.00;;;;;;5069179;28;20045;-67
2022/12/13 06:03:41;;;;;;;43.50;26.88;;;2.40;1.00;;;;;;5064415;28;20173;-67
2022/12/13 06:06:09;;;;;;;41.78;25.50;;;2.40;1.00;;;;;;5068685;28;20131;-66
2022/12/13 06:08:34;;;;;;;38.85;25.48;;;1.80;1.00;;;;;;5067989;28;20119;-68
2022/12/13 06:11:02;;;;;;;38.65;25.95;;;2.20;1.00;;;;;;5070002;28;20162;-68
2022/12/13 06:13:27;;;;;;;39.60;26.33;;;1.90;99.90;;;;;;5070319;28;20044;-68
2022/12/13 06:15:53;;;;;;;43.22;27.50;;;1.90;99.90;;;;;;5069996;28;20055;-67
2022/12/13 06:18:19;;;;;;;37.38;26.15;;;2.20;99.90;;;;;;5069239;28;20167;-67
2022/12/13 06:20:54;;;;;;;37.70;26.13;;;1.50;99.90;;;;;;5069716;28;20534;-68
2022/12/13 06:23:19;;;;;;;35.55;25.08;;;1.90;99.90;;;;;;5053440;28;20055;-67
2022/12/13 06:25:45;;;;;;;39.50;25.38;;;2.00;99.90;;;;;;5070540;28;20044;-67
2022/12/13 06:28:10;;;;;;;42.03;25.75;;;1.50;99.90;;;;;;5070447;28;20505;-67
2022/12/13 06:30:36;;;;;;;42.85;26.33;;;1.80;99.90;;;;;;5087103;28;20041;-67
2022/12/13 06:33:02;;;;;;;62.17;28.52;;;1.50;99.90;;;;;;5070322;28;20033;-67
2022/12/13 06:35:28;;;;;;;51.15;27.20;;;2.10;99.90;;;;;;5069857;28;20044;-67
2022/12/13 06:37:53;;;;;;;40.63;27.27;;;1.80;99.90;;;;;;5053082;28;20036;-67
2022/12/13 06:40:19;;;;;;;40.40;27.17;;;1.90;99.90;;;;;;5070123;28;20127;-67
2022/12/13 06:42:44;;;;;;;43.60;26.33;;;2.20;99.90;;;;;;5070371;28;20097;-67
2022/12/13 06:45:10;;;;;;;43.65;25.27;;;2.00;99.90;;;;;;5073823;28;20052;-67
2022/12/13 06:47:35;;;;;;;42.10;26.77;;;1.80;99.90;;;;;;5073809;28;20076;-67
2022/12/13 06:50:01;;;;;;;44.67;27.35;;;1.30;99.90;;;;;;5073646;28;20371;-67
2022/12/13 06:52:27;;;;;;;38.60;25.52;;;1.40;88.70;;;;;;5073766;28;20071;-67
2022/12/13 06:54:52;;;;;;;39.80;25.40;;;1.70;98.20;;;;;;5073718;28;20056;-67
2022/12/13 06:57:18;;;;;;;42.17;27.27;;;1.30;90.70;;;;;;5074852;28;20036;-67
2022/12/13 06:59:44;;;;;;;42.42;26.95;;;1.20;54.60;;;;;;5073309;28;20040;-67
2022/12/13 07:02:09;;;;;;;46.05;26.95;;;1.80;99.50;;;;;;5073480;28;20032;-67
2022/12/13 07:04:35;;;;;;;39.70;25.85;;;1.30;99.90;;;;;;5073149;28;20137;-67
2022/12/13 07:07:01;;;;;;;39.55;25.05;;;2.00;99.90;;;;;;5073073;28;20067;-67
2022/12/13 07:09:27;;;;;;;37.70;24.42;;;1.30;96.70;;;;;;5074027;28;20044;-67
2022/12/13 07:11:53;;;;;;;38.42;25.05;;;1.80;51.00;;;;;;5072888;28;20089;-67
2022/12/13 07:14:19;;;;;;;55.80;25.33;;;1.60;1.00;;;;;;5072565;28;20302;-67
2022/12/13 07:16:44;;;;;;;35.33;23.38;;;1.40;1.00;;;;;;5073175;28;20524;-67
2022/12/13 07:19:10;;;;;;;42.05;24.75;;;1.70;1.00;;;;;;5090034;28;20509;-67
2022/12/13 07:21:37;;;;;;;39.92;25.35;;;1.30;1.00;;;;;;5071679;28;20040;-66
2022/12/13 07:24:03;;;;;;;44.67;25.25;;;1.20;1.00;;;;;;5073322;28;20037;-67
2022/12/13 07:26:29;;;;;;;36.30;24.38;;;1.20;54.60;;;;;;5074212;28;20044;-66
2022/12/13 07:28:55;;;;;;;44.05;24.20;;;1.60;81.70;;;;;;5071917;28;20040;-67
2022/12/13 07:31:21;;;;;;;45.92;24.50;;;1.30;69.20;;;;;;5065026;28;20044;-67
2022/12/13 07:33:47;;;;;;;41.35;23.80;;;1.20;15.00;;;;;;5071643;28;20115;-66
2022/12/13 07:36:15;;;;;;;37.05;23.02;;;1.70;1.00;;;;;;5069054;28;20154;-66
2022/12/13 07:38:41;;;;;;;38.22;24.67;;;1.10;1.00;;;;;;5071892;28;20131;-66
2022/12/13 07:41:07;;;;;;;41.00;24.05;;;1.60;1.00;;;;;;5055912;28;20045;-66
2022/12/13 07:43:33;;;;;;;35.67;23.23;;;1.30;1.00;;;;;;5072653;28;20064;-66
2022/12/13 07:46:00;;;;;;;36.15;22.63;;;1.50;1.00;;;;;;5073037;28;20053;-67
2022/12/13 07:48:27;;;;;;;37.58;23.02;;;1.50;1.00;;;;;;5071392;28;20109;-67
2022/12/13 07:50:53;;;;;;;41.33;24.65;;;1.30;1.00;;;;;;5078744;28;20067;-66
2022/12/13 07:53:20;;;;;;;959.65;69.80;;;0.00;1.00;;;;;;5072614;28;20041;-66
2022/12/13 07:55:46;;;;;;;37.13;23.17;;;-0.40;1.00;;;;;;5071983;28;20052;-67
2022/12/13 07:58:13;;;;;;;35.85;23.25;;;0.10;27.30;;;;;;5071174;28;20048;-66
2022/12/13 08:00:43;;;;;;;41.70;24.42;;;-0.40;1.00;;;;;;5071985;28;20155;-66
2022/12/13 08:03:08;;;;;;;37.45;24.92;;;0.00;1.00;;;;;;5072151;28;20044;-66
2022/12/13 08:05:38;;;;;;;42.42;24.67;;;-0.10;1.00;;;;;;5071981;28;20033;-66
2022/12/13 08:08:06;;;;;;;38.00;25.10;;;-0.60;1.00;;;;;;5072014;28;20127;-66
2022/12/13 08:10:32;;;;;;;39.28;24.35;;;-0.50;1.00;;;;;;5055071;28;20033;-66
2022/12/13 08:12:58;;;;;;;41.42;23.90;;;-0.10;1.00;;;;;;5069945;28;20123;-66
2022/12/13 08:15:24;;;;;;;38.33;23.55;;;-0.60;1.00;;;;;;5072731;28;20055;-66
2022/12/13 08:17:50;;;;;;;40.63;24.95;;;0.10;1.00;;;;;;5072117;28;20032;-66
2022/12/13 08:20:16;;;;;;;36.45;24.52;;;-0.20;1.00;;;;;;5071151;28;20603;-66
2022/12/13 08:22:42;;;;;;;36.63;24.70;;;-0.40;1.00;;;;;;5071279;28;20044;-66
2022/12/13 08:25:08;;;;;;;41.33;24.23;;;-0.30;1.00;;;;;;5071542;28;20056;-67
2022/12/13 08:27:34;;;;;;;32.97;21.95;;;-0.30;1.00;;;;;;5072191;28;20509;-67
2022/12/13 08:29:59;;;;;;;33.92;22.05;;;0.40;8.80;;;;;;5054254;28;20029;-67
2022/12/13 08:32:25;;;;;;;33.58;21.63;;;0.00;89.30;;;;;;5064132;28;20038;-67
2022/12/13 08:34:51;;;;;;;36.85;21.40;;;0.00;99.90;;;;;;5071025;28;20078;-67
2022/12/13 08:37:16;;;;;;;29.73;20.33;;;0.80;99.90;;;;;;5071086;28;20066;-66
2022/12/13 08:39:43;;;;;;;31.40;20.17;;;0.30;99.90;;;;;;5053569;28;20044;-67
2022/12/13 08:42:14;;;;;;;27.85;19.95;;;0.70;99.90;;;;;;5070705;28;20041;-68
2022/12/13 08:44:40;;;;;;;32.60;20.23;;;0.40;99.90;;;;;;5071588;28;20048;-67
2022/12/13 08:47:06;;;;;;;31.10;19.58;;;0.60;99.90;;;;;;5071274;28;20032;-68
2022/12/13 08:49:32;;;;;;;31.45;19.65;;;0.80;99.90;;;;;;5070962;28;20032;-67
2022/12/13 08:51:57;;;;;;;33.38;20.23;;;1.10;99.90;;;;;;5065478;28;20123;-67
2022/12/13 08:54:23;;;;;;;30.23;19.05;;;0.90;99.90;;;;;;5055096;28;20090;-66
2022/12/13 08:56:48;;;;;;;24.90;17.38;;;1.10;99.90;;;;;;5086206;28;20037;-66
2022/12/13 08:59:14;;;;;;;29.42;18.42;;;1.20;99.90;;;;;;5070437;28;20379;-65
2022/12/13 09:01:40;;;;;;;29.02;18.63;;;0.90;99.90;;;;;;5084138;28;20036;-65
2022/12/13 09:04:05;;;;;;;32.75;17.73;;;1.00;99.90;;;;;;5071173;28;20139;-66
2022/12/13 09:06:31;;;;;;;30.42;18.23;;;1.50;1.00;;;;;;5071573;28;20465;-65
2022/12/13 09:08:56;;;;;;;26.38;17.10;;;1.40;1.00;;;;;;5070244;28;20058;-66
2022/12/13 09:11:22;;;;;;;28.90;18.65;;;1.30;1.00;;;;;;5070730;28;20035;-65
2022/12/13 09:13:48;;;;;;;28.25;18.45;;;1.90;1.00;;;;;;5086687;28;20462;-65
2022/12/13 09:16:18;;;;;;;28.00;18.23;;;2.00;1.00;;;;;;5071320;28;20127;-65
2022/12/13 09:18:45;;;;;;;30.88;18.58;;;1.90;1.00;;;;;;5072165;28;20871;-66
2022/12/13 09:21:15;;;;;;;27.83;18.98;;;2.20;1.00;;;;;;5070030;28;20558;-66
2022/12/13 09:23:41;;;;;;;1309.78;103.38;;;1.80;10.20;;;;;;5071240;28;20494;-66
2022/12/13 09:26:08;;;;;;;24.52;17.67;;;2.20;29.70;;;;;;5069705;28;20127;-66
2022/12/13 09:28:35;;;;;;;28.58;18.35;;;2.70;99.90;;;;;;5070414;28;20029;-65
2022/12/13 09:31:13;;;;;;;28.52;17.20;;;2.70;99.90;;;;;;5053887;28;20502;-65
2022/12/13 09:33:39;;;;;;;24.23;17.40;;;2.40;99.90;;;;;;5070775;28;20295;-66
2022/12/13 09:36:06;;;;;;;25.48;16.65;;;3.00;99.90;;;;;;5070779;28;20123;-66
2022/12/13 09:38:34;;;;;;;22.90;16.45;;;2.70;99.90;;;;;;5069565;28;20044;-66
2022/12/13 09:41:11;;;;;;;23.23;15.95;;;2.90;99.90;;;;;;5069953;28;20052;-66
2022/12/13 09:43:38;;;;;;;23.85;16.17;;;3.10;99.90;;;;;;5069662;28;20056;-66
2022/12/13 09:46:11;;;;;;;25.83;16.00;;;2.90;99.90;;;;;;5053739;28;20080;-66
2022/12/13 09:48:37;;;;;;;21.33;14.95;;;3.00;99.90;;;;;;5071802;28;20051;-66
2022/12/13 09:51:03;;;;;;;21.25;15.25;;;3.20;99.90;;;;;;5070780;28;20402;-66
2022/12/13 09:53:29;;;;;;;23.23;15.68;;;3.40;99.90;;;;;;5066575;28;20036;-66
2022/12/13 09:55:54;;;;;;;21.55;15.38;;;3.70;99.90;;;;;;5070339;28;20039;-66
2022/12/13 09:58:27;;;;;;;21.67;15.00;;;3.60;99.90;;;;;;5070661;28;20047;-66
2022/12/13 10:00:55;;;;;;;22.25;15.73;;;3.50;99.90;;;;;;5070918;28;20052;-66
2022/12/13 10:03:23;;;;;;;1913.00;157.40;;;3.90;62.70;;;;;;5070597;28;20082;-66
2022/12/13 10:06:00;;;;;;;23.27;16.17;;;4.20;25.30;;;;;;5070354;28;20095;-66
2022/12/13 10:08:36;;;;;;;21.73;15.13;;;3.90;68.90;;;;;;5070422;28;20044;-65
2022/12/13 10:11:02;;;;;;;27.25;16.85;;;4.20;19.20;;;;;;5071504;28;20068;-66
2022/12/13 10:13:42;;;;;;;22.60;16.45;;;4.00;1.00;;;;;;5069252;28;20045;-66
2022/12/13 10:16:34;;;;;;;22.85;15.75;;;4.30;1.00;;;;;;5070866;28;20051;-66
2022/12/13 10:19:23;;;;;;;24.27;16.85;;;4.40;1.00;;;;;;5070762;28;20494;-66
2022/12/13 10:21:50;;;;;;;29.02;17.40;;;4.50;1.00;;;;;;5055920;28;20070;-66
2022/12/13 10:24:29;;;;;;;24.10;17.23;;;4.30;1.00;;;;;;5072764;28;20037;-66
2022/12/13 10:27:12;;;;;;;23.10;17.33;;;4.60;99.90;;;;;;5079468;28;20037;-66
2022/12/13 10:30:02;;;;;;;26.83;17.35;;;4.50;99.90;;;;;;5054379;28;20049;-66
2022/12/13 10:32:29;;;;;;;30.90;17.90;;;4.60;99.90;;;;;;5054354;28;20048;-65
2022/12/13 10:34:55;;;;;;;26.55;18.33;;;4.90;99.90;;;;;;5054105;28;20045;-66
2022/12/13 10:37:27;;;;;;;29.38;18.75;;;4.80;76.20;;;;;;5054326;28;20048;-66
2022/12/13 10:39:53;;;;;;;27.58;18.02;;;5.00;39.10;;;;;;5054318;28;20041;-66
2022/12/13 10:42:21;;;;;;;25.33;18.13;;;5.10;13.00;;;;;;5071912;28;20047;-66
2022/12/13 10:44:48;;;;;;;27.83;18.20;;;5.00;1.00;;;;;;5073874;28;20052;-66
2022/12/13 10:47:20;;;;;;;27.83;17.40;;;5.30;1.00;;;;;;5075430;28;20142;-66
2022/12/13 10:49:52;;;;;;;24.88;17.10;;;5.00;1.00;;;;;;5074173;28;20036;-66
2022/12/13 10:52:33;;;;;;;27.48;18.55;;;5.10;99.90;;;;;;5075308;28;20048;-66
2022/12/13 10:55:05;;;;;;;28.15;18.27;;;5.20;99.90;;;;;;5073445;28;20413;-66
2022/12/13 10:57:32;;;;;;;27.85;18.00;;;5.20;99.90;;;;;;5055265;28;20041;-66
2022/12/13 10:59:58;;;;;;;26.48;18.48;;;5.40;99.90;;;;;;5059833;28;20036;-66
2022/12/13 11:02:31;;;;;;;27.30;19.13;;;5.60;99.90;;;;;;5074866;28;20044;-66
2022/12/13 11:04:58;;;;;;;25.83;17.70;;;5.70;99.90;;;;;;5071723;28;20044;-66
2022/12/13 11:07:29;;;;;;;27.05;18.55;;;5.80;99.90;;;;;;5074938;28;20573;-66
2022/12/13 11:09:56;;;;;;;27.55;17.63;;;5.80;23.80;;;;;;5073937;28;20078;-66
2022/12/13 11:12:25;;;;;;;24.15;17.02;;;5.80;1.00;;;;;;5073534;28;20040;-66
2022/12/13 11:14:56;;;;;;;29.83;18.80;;;5.70;99.90;;;;;;5073885;28;20494;-67
2022/12/13 11:17:25;;;;;;;27.67;17.95;;;5.70;99.90;;;;;;5074423;28;20037;-66
2022/12/13 11:19:53;;;;;;;25.35;18.15;;;5.70;99.90;;;;;;5074578;28;20047;-67
2022/12/13 11:22:25;;;;;;;25.10;16.88;;;5.70;99.90;;;;;;5074553;28;20041;-66
2022/12/13 11:24:58;;;;;;;26.42;17.73;;;5.80;99.90;;;;;;5073955;28;20051;-66
2022/12/13 11:27:39;;;;;;;27.67;17.95;;;5.80;99.90;;;;;;5070791;28;20498;-66
2022/12/13 11:30:24;;;;;;;23.50;17.08;;;5.90;36.50;;;;;;5071812;28;20214;-66
2022/12/13 11:33:04;;;;;;;28.75;17.45;;;5.80;1.00;;;;;;5074316;28;20043;-66
2022/12/13 11:36:07;;;;;;;22.70;16.17;;;5.80;1.00;;;;;;5074382;28;20040;-66
2022/12/13 11:39:05;;;;;;;24.63;17.30;;;5.80;1.00;;;;;;5062168;28;20055;-66
2022/12/13 11:42:07;;;;;;;23.98;16.38;;;5.70;99.90;;;;;;5067861;28;20047;-66
2022/12/13 11:44:50;;;;;;;23.10;16.50;;;5.80;99.90;;;;;;5035396;28;20053;-66
2022/12/13 11:47:26;;;;;;;24.77;16.52;;;5.70;99.90;;;;;;5074389;28;20036;-66
2022/12/13 11:49:52;;;;;;;23.25;16.13;;;5.80;99.90;;;;;;5072830;28;20078;-66
2022/12/13 11:52:27;;;;;;;23.27;15.90;;;5.80;99.90;;;;;;5072892;28;20076;-66
2022/12/13 11:55:00;;;;;;;23.60;16.92;;;5.80;45.30;;;;;;5074167;28;20041;-66
2022/12/13 11:57:44;;;;;;;24.25;16.85;;;5.80;2.30;;;;;;5073617;28;20040;-65
2022/12/13 12:00:24;;;;;;;26.90;17.35;;;5.70;1.00;;;;;;5055729;28;20182;-65
2022/12/13 12:02:58;;;;;;;135.88;24.00;;;5.80;1.00;;;;;;5073362;28;20548;-66
2022/12/13 12:05:31;;;;;;;27.13;18.00;;;5.80;1.00;;;;;;5053856;28;20039;-66
2022/12/13 12:08:34;;;;;;;24.83;17.50;;;5.90;1.00;;;;;;5070597;28;20048;-66
2022/12/13 12:11:23;;;;;;;25.92;16.75;;;5.90;1.00;;;;;;5042381;28;20059;-66
2022/12/13 12:13:57;;;;;;;22.98;14.52;;;5.80;1.00;;;;;;5073986;28;20648;-66
2022/12/13 12:16:46;;;;;;;22.95;15.20;;;5.90;99.90;;;;;;5073910;28;20048;-66
2022/12/13 12:19:21;;;;;;;20.90;15.23;;;5.90;99.90;;;;;;5072039;28;20040;-66
2022/12/13 12:22:25;;;;;;;23.33;15.50;;;5.90;99.90;;;;;;5070191;28;20059;-66
2022/12/13 12:25:07;;;;;;;23.52;14.52;;;5.90;99.90;;;;;;5072309;28;20040;-66
2022/12/13 12:27:47;;;;;;;19.65;14.43;;;5.90;99.90;;;;;;5071531;28;20040;-66
2022/12/13 12:30:44;;;;;;;23.00;14.65;;;5.90;94.30;;;;;;5053377;28;20044;-66
2022/12/13 12:33:42;;;;;;;25.38;15.23;;;5.90;45.80;;;;;;5040435;28;20041;-66
2022/12/13 12:36:20;;;;;;;28.05;14.80;;;5.80;26.70;;;;;;5071155;28;20075;-66
2022/12/13 12:39:23;;;;;;;23.48;15.63;;;5.90;1.00;;;;;;5058736;28;20071;-66
2022/12/13 12:42:25;;;;;;;23.48;15.73;;;6.30;78.60;;;;;;5064444;28;20041;-67
2022/12/13 12:45:16;;;;;;;22.45;15.50;;;6.20;15.20;;;;;;5072915;28;20458;-67
2022/12/13 12:47:51;;;;;;;21.67;14.98;;;6.10;1.00;;;;;;5069742;28;20048;-66
2022/12/13 12:50:24;;;;;;;20.98;15.65;;;6.00;1.00;;;;;;5070928;28;20040;-66
2022/12/13 12:53:23;;;;;;;23.38;15.68;;;6.00;1.00;;;;;;5071910;28;20486;-66
2022/12/13 12:55:55;;;;;;;24.83;14.70;;;5.90;1.00;;;;;;5067343;28;20047;-67
2022/12/13 12:58:43;;;;;;;26.05;14.40;;;5.90;1.00;;;;;;5071270;28;20509;-67
2022/12/13 13:01:11;;;;;;;23.35;15.75;;;5.90;1.00;;;;;;5071535;28;20444;-67